sensor_id;sensor_type;location;lat;lon;timestamp;temperature;humidity
70079;DHT22;57451;52.496;13.456;2022-11-11T00:00:23;10.90;70.10
70079;DHT22;57451;52.496;13.456;2022-11-11T00:03:08;10.90;69.90
70079;DHT22;57451;52.496;13.456;2022-11-11T00:05:58;10.80;69.70
70079;DHT22;57451;52.496;13.456;2022-11-11T00:08:47;10.80;70.00
70079;DHT22;57451;52.496;13.456;2022-11-11T00:11:32;10.80;70.30
70079;DHT22;57451;52.496;13.456;2022-11-11T00:14:18;10.70;70.70
70079;DHT22;57451;52.496;13.456;2022-11-11T00:17:05;10.70;70.70
70079;DHT22;57451;52.496;13.456;2022-11-11T00:20:10;10.60;71.00
70079;DHT22;57451;52.496;13.456;2022-11-11T00:23:22;10.60;71.10
70079;DHT22;57451;52.496;13.456;2022-11-11T00:26:26;10.50;71.40
70079;DHT22;57451;52.496;13.456;2022-11-11T00:29:28;10.50;71.40
70079;DHT22;57451;52.496;13.456;2022-11-11T00:32:16;10.50;71.50
70079;DHT22;57451;52.496;13.456;2022-11-11T00:35:08;10.40;71.50
70079;DHT22;57451;52.496;13.456;2022-11-11T00:38:13;10.40;71.60
70079;DHT22;57451;52.496;13.456;2022-11-11T00:41:21;10.40;71.40
70079;DHT22;57451;52.496;13.456;2022-11-11T00:44:07;10.40;71.50
70079;DHT22;57451;52.496;13.456;2022-11-11T00:46:53;10.30;71.70
70079;DHT22;57451;52.496;13.456;2022-11-11T00:49:58;10.40;71.80
70079;DHT22;57451;52.496;13.456;2022-11-11T00:53:05;10.30;71.80
70079;DHT22;57451;52.496;13.456;2022-11-11T00:55:54;10.30;71.80
70079;DHT22;57451;52.496;13.456;2022-11-11T00:58:56;10.20;72.00
70079;DHT22;57451;52.496;13.456;2022-11-11T01:02:06;10.20;71.90
70079;DHT22;57451;52.496;13.456;2022-11-11T01:05:44;10.20;72.30
70079;DHT22;57451;52.496;13.456;2022-11-11T01:08:48;10.10;72.50
70079;DHT22;57451;52.496;13.456;2022-11-11T01:11:33;10.10;72.70
70079;DHT22;57451;52.496;13.456;2022-11-11T01:14:19;10.10;72.70
70079;DHT22;57451;52.496;13.456;2022-11-11T01:17:05;10.00;72.90
70079;DHT22;57451;52.496;13.456;2022-11-11T01:19:51;10.00;72.70
70079;DHT22;57451;52.496;13.456;2022-11-11T01:22:38;10.00;72.60
70079;DHT22;57451;52.496;13.456;2022-11-11T01:25:24;10.00;72.80
70079;DHT22;57451;52.496;13.456;2022-11-11T01:28:10;10.00;72.70
70079;DHT22;57451;52.496;13.456;2022-11-11T01:31:00;10.00;72.80
70079;DHT22;57451;52.496;13.456;2022-11-11T01:33:46;10.00;72.90
70079;DHT22;57451;52.496;13.456;2022-11-11T01:36:32;10.00;72.60
70079;DHT22;57451;52.496;13.456;2022-11-11T01:39:19;10.10;72.80
70079;DHT22;57451;52.496;13.456;2022-11-11T01:42:05;10.00;72.60
70079;DHT22;57451;52.496;13.456;2022-11-11T01:44:51;10.00;72.60
70079;DHT22;57451;52.496;13.456;2022-11-11T01:47:37;10.00;72.80
70079;DHT22;57451;52.496;13.456;2022-11-11T01:51:18;10.00;72.50
70079;DHT22;57451;52.496;13.456;2022-11-11T01:54:06;10.00;72.80
70079;DHT22;57451;52.496;13.456;2022-11-11T01:56:59;10.00;72.90
70079;DHT22;57451;52.496;13.456;2022-11-11T01:59:49;10.00;72.80
70079;DHT22;57451;52.496;13.456;2022-11-11T02:02:39;9.90;73.10
70079;DHT22;57451;52.496;13.456;2022-11-11T02:05:27;10.00;73.10
70079;DHT22;57451;52.496;13.456;2022-11-11T02:08:31;10.00;72.80
70079;DHT22;57451;52.496;13.456;2022-11-11T02:11:21;10.00;72.70
70079;DHT22;57451;52.496;13.456;2022-11-11T02:14:27;10.00;72.20
70079;DHT22;57451;52.496;13.456;2022-11-11T02:17:25;10.00;72.40
70079;DHT22;57451;52.496;13.456;2022-11-11T02:20:14;10.00;72.20
70079;DHT22;57451;52.496;13.456;2022-11-11T02:23:04;10.00;72.50
70079;DHT22;57451;52.496;13.456;2022-11-11T02:25:53;10.00;72.40
70079;DHT22;57451;52.496;13.456;2022-11-11T02:28:41;10.00;72.30
70079;DHT22;57451;52.496;13.456;2022-11-11T02:31:28;9.90;72.40
70079;DHT22;57451;52.496;13.456;2022-11-11T02:34:14;9.90;72.60
70079;DHT22;57451;52.496;13.456;2022-11-11T02:37:02;9.90;72.50
70079;DHT22;57451;52.496;13.456;2022-11-11T02:39:51;9.90;73.10
70079;DHT22;57451;52.496;13.456;2022-11-11T02:42:55;9.80;73.00
70079;DHT22;57451;52.496;13.456;2022-11-11T02:45:41;9.80;73.10
70079;DHT22;57451;52.496;13.456;2022-11-11T02:48:27;9.90;73.10
70079;DHT22;57451;52.496;13.456;2022-11-11T02:51:13;9.90;73.10
70079;DHT22;57451;52.496;13.456;2022-11-11T02:53:58;9.90;73.00
70079;DHT22;57451;52.496;13.456;2022-11-11T02:56:47;9.90;72.80
70079;DHT22;57451;52.496;13.456;2022-11-11T02:59:53;9.90;73.10
70079;DHT22;57451;52.496;13.456;2022-11-11T03:02:39;9.80;73.30
70079;DHT22;57451;52.496;13.456;2022-11-11T03:05:25;9.80;73.30
70079;DHT22;57451;52.496;13.456;2022-11-11T03:08:11;9.70;73.50
70079;DHT22;57451;52.496;13.456;2022-11-11T03:10:57;9.80;73.40
70079;DHT22;57451;52.496;13.456;2022-11-11T03:13:43;9.80;73.40
70079;DHT22;57451;52.496;13.456;2022-11-11T03:16:31;9.80;73.20
70079;DHT22;57451;52.496;13.456;2022-11-11T03:19:35;9.80;73.10
70079;DHT22;57451;52.496;13.456;2022-11-11T03:22:21;9.80;73.10
70079;DHT22;57451;52.496;13.456;2022-11-11T03:25:27;9.80;73.10
70079;DHT22;57451;52.496;13.456;2022-11-11T03:28:24;9.80;73.50
70079;DHT22;57451;52.496;13.456;2022-11-11T03:31:11;9.80;73.30
70079;DHT22;57451;52.496;13.456;2022-11-11T03:33:58;9.80;73.20
70079;DHT22;57451;52.496;13.456;2022-11-11T03:37:04;9.80;73.20
70079;DHT22;57451;52.496;13.456;2022-11-11T03:40:09;9.70;73.40
70079;DHT22;57451;52.496;13.456;2022-11-11T03:42:55;9.70;73.50
70079;DHT22;57451;52.496;13.456;2022-11-11T03:45:49;9.70;73.50
70079;DHT22;57451;52.496;13.456;2022-11-11T03:48:35;9.80;73.40
70079;DHT22;57451;52.496;13.456;2022-11-11T03:51:22;9.80;73.00
70079;DHT22;57451;52.496;13.456;2022-11-11T03:54:08;9.90;72.90
70079;DHT22;57451;52.496;13.456;2022-11-11T03:56:54;9.90;72.70
70079;DHT22;57451;52.496;13.456;2022-11-11T04:00:04;9.80;72.90
70079;DHT22;57451;52.496;13.456;2022-11-11T04:03:03;9.80;72.80
70079;DHT22;57451;52.496;13.456;2022-11-11T04:06:09;9.80;73.00
70079;DHT22;57451;52.496;13.456;2022-11-11T04:09:15;9.70;73.20
70079;DHT22;57451;52.496;13.456;2022-11-11T04:12:21;9.70;73.40
70079;DHT22;57451;52.496;13.456;2022-11-11T04:15:08;9.60;73.40
70079;DHT22;57451;52.496;13.456;2022-11-11T04:18:14;9.70;73.40
70079;DHT22;57451;52.496;13.456;2022-11-11T04:20:59;9.70;73.20
70079;DHT22;57451;52.496;13.456;2022-11-11T04:24:04;9.70;73.20
70079;DHT22;57451;52.496;13.456;2022-11-11T04:27:14;9.70;73.30
70079;DHT22;57451;52.496;13.456;2022-11-11T04:30:00;9.70;73.40
70079;DHT22;57451;52.496;13.456;2022-11-11T04:32:45;9.70;73.40
70079;DHT22;57451;52.496;13.456;2022-11-11T04:35:31;9.70;73.20
70079;DHT22;57451;52.496;13.456;2022-11-11T04:38:17;9.70;73.40
70079;DHT22;57451;52.496;13.456;2022-11-11T04:41:22;9.60;73.50
70079;DHT22;57451;52.496;13.456;2022-11-11T04:44:14;9.60;73.50
70079;DHT22;57451;52.496;13.456;2022-11-11T04:47:18;9.70;73.40
70079;DHT22;57451;52.496;13.456;2022-11-11T04:50:05;9.70;73.30
70079;DHT22;57451;52.496;13.456;2022-11-11T04:52:52;9.70;73.20
70079;DHT22;57451;52.496;13.456;2022-11-11T04:55:38;9.70;73.30
70079;DHT22;57451;52.496;13.456;2022-11-11T04:58:43;9.70;73.30
70079;DHT22;57451;52.496;13.456;2022-11-11T05:01:30;9.60;73.40
70079;DHT22;57451;52.496;13.456;2022-11-11T05:04:39;9.60;73.30
70079;DHT22;57451;52.496;13.456;2022-11-11T05:07:24;9.60;73.30
70079;DHT22;57451;52.496;13.456;2022-11-11T05:10:29;9.60;73.30
70079;DHT22;57451;52.496;13.456;2022-11-11T05:13:15;9.60;73.30
70079;DHT22;57451;52.496;13.456;2022-11-11T05:16:39;9.60;73.40
70079;DHT22;57451;52.496;13.456;2022-11-11T05:19:44;9.50;73.50
70079;DHT22;57451;52.496;13.456;2022-11-11T05:22:48;9.60;73.50
70079;DHT22;57451;52.496;13.456;2022-11-11T05:25:34;9.50;73.50
70079;DHT22;57451;52.496;13.456;2022-11-11T05:28:20;9.50;73.50
70079;DHT22;57451;52.496;13.456;2022-11-11T05:31:06;9.60;73.30
70079;DHT22;57451;52.496;13.456;2022-11-11T05:33:53;9.60;73.20
70079;DHT22;57451;52.496;13.456;2022-11-11T05:36:39;9.50;73.30
70079;DHT22;57451;52.496;13.456;2022-11-11T05:39:25;9.60;73.40
70079;DHT22;57451;52.496;13.456;2022-11-11T05:42:11;9.50;73.30
70079;DHT22;57451;52.496;13.456;2022-11-11T05:44:57;9.50;73.30
70079;DHT22;57451;52.496;13.456;2022-11-11T05:47:43;9.50;73.40
70079;DHT22;57451;52.496;13.456;2022-11-11T05:50:30;9.50;73.40
70079;DHT22;57451;52.496;13.456;2022-11-11T05:53:16;9.60;73.00
70079;DHT22;57451;52.496;13.456;2022-11-11T05:56:09;9.60;72.90
70079;DHT22;57451;52.496;13.456;2022-11-11T05:58:55;9.50;73.40
70079;DHT22;57451;52.496;13.456;2022-11-11T06:01:41;9.50;73.20
70079;DHT22;57451;52.496;13.456;2022-11-11T06:04:26;9.50;73.20
70079;DHT22;57451;52.496;13.456;2022-11-11T06:07:14;9.60;73.00
70079;DHT22;57451;52.496;13.456;2022-11-11T06:10:00;9.50;73.20
70079;DHT22;57451;52.496;13.456;2022-11-11T06:13:06;9.50;73.10
70079;DHT22;57451;52.496;13.456;2022-11-11T06:15:55;9.60;73.00
70079;DHT22;57451;52.496;13.456;2022-11-11T06:18:42;9.60;72.60
70079;DHT22;57451;52.496;13.456;2022-11-11T06:21:27;9.60;72.60
70079;DHT22;57451;52.496;13.456;2022-11-11T06:24:14;9.50;72.90
70079;DHT22;57451;52.496;13.456;2022-11-11T06:27:01;9.40;73.50
70079;DHT22;57451;52.496;13.456;2022-11-11T06:29:47;9.40;73.60
70079;DHT22;57451;52.496;13.456;2022-11-11T06:32:33;9.40;73.50
70079;DHT22;57451;52.496;13.456;2022-11-11T06:35:19;9.40;73.80
70079;DHT22;57451;52.496;13.456;2022-11-11T06:38:06;9.40;73.60
70079;DHT22;57451;52.496;13.456;2022-11-11T06:40:53;9.40;73.40
70079;DHT22;57451;52.496;13.456;2022-11-11T06:43:39;9.40;73.60
70079;DHT22;57451;52.496;13.456;2022-11-11T06:46:26;9.40;73.70
70079;DHT22;57451;52.496;13.456;2022-11-11T06:49:12;9.40;73.60
70079;DHT22;57451;52.496;13.456;2022-11-11T06:51:57;9.40;73.50
70079;DHT22;57451;52.496;13.456;2022-11-11T06:54:43;9.50;73.50
70079;DHT22;57451;52.496;13.456;2022-11-11T06:57:30;9.50;73.40
70079;DHT22;57451;52.496;13.456;2022-11-11T07:00:17;9.50;73.50
70079;DHT22;57451;52.496;13.456;2022-11-11T07:03:03;9.50;73.40
70079;DHT22;57451;52.496;13.456;2022-11-11T07:05:49;9.50;73.20
70079;DHT22;57451;52.496;13.456;2022-11-11T07:08:42;9.60;72.90
70079;DHT22;57451;52.496;13.456;2022-11-11T07:11:29;9.60;73.30
70079;DHT22;57451;52.496;13.456;2022-11-11T07:14:16;9.60;73.50
70079;DHT22;57451;52.496;13.456;2022-11-11T07:17:08;9.60;73.30
70079;DHT22;57451;52.496;13.456;2022-11-11T07:19:54;9.60;73.10
70079;DHT22;57451;52.496;13.456;2022-11-11T07:22:40;9.60;73.00
70079;DHT22;57451;52.496;13.456;2022-11-11T07:25:26;9.60;72.90
70079;DHT22;57451;52.496;13.456;2022-11-11T07:28:12;9.70;72.80
70079;DHT22;57451;52.496;13.456;2022-11-11T07:31:00;9.60;72.90
70079;DHT22;57451;52.496;13.456;2022-11-11T07:33:46;9.70;72.80
70079;DHT22;57451;52.496;13.456;2022-11-11T07:36:32;9.60;72.70
70079;DHT22;57451;52.496;13.456;2022-11-11T07:39:18;9.60;72.70
70079;DHT22;57451;52.496;13.456;2022-11-11T07:42:03;9.70;72.80
70079;DHT22;57451;52.496;13.456;2022-11-11T07:44:50;9.70;72.70
70079;DHT22;57451;52.496;13.456;2022-11-11T07:47:37;9.80;72.50
70079;DHT22;57451;52.496;13.456;2022-11-11T07:50:23;9.80;72.60
70079;DHT22;57451;52.496;13.456;2022-11-11T07:53:09;9.80;72.60
70079;DHT22;57451;52.496;13.456;2022-11-11T07:55:56;9.80;72.70
70079;DHT22;57451;52.496;13.456;2022-11-11T07:58:41;9.80;72.70
70079;DHT22;57451;52.496;13.456;2022-11-11T08:01:27;9.80;72.70
70079;DHT22;57451;52.496;13.456;2022-11-11T08:04:15;9.80;72.70
70079;DHT22;57451;52.496;13.456;2022-11-11T08:07:01;9.80;72.40
70079;DHT22;57451;52.496;13.456;2022-11-11T08:09:46;9.80;72.50
70079;DHT22;57451;52.496;13.456;2022-11-11T08:12:32;9.80;72.50
70079;DHT22;57451;52.496;13.456;2022-11-11T08:15:37;9.90;72.50
70079;DHT22;57451;52.496;13.456;2022-11-11T08:18:23;9.90;72.30
70079;DHT22;57451;52.496;13.456;2022-11-11T08:21:10;9.90;72.40
70079;DHT22;57451;52.496;13.456;2022-11-11T08:23:56;9.90;72.40
70079;DHT22;57451;52.496;13.456;2022-11-11T08:27:02;10.00;72.20
70079;DHT22;57451;52.496;13.456;2022-11-11T08:29:47;10.10;71.90
70079;DHT22;57451;52.496;13.456;2022-11-11T08:32:33;10.20;71.60
70079;DHT22;57451;52.496;13.456;2022-11-11T08:35:19;10.20;71.60
70079;DHT22;57451;52.496;13.456;2022-11-11T08:38:06;10.30;71.30
70079;DHT22;57451;52.496;13.456;2022-11-11T08:40:52;10.40;70.90
70079;DHT22;57451;52.496;13.456;2022-11-11T08:43:38;10.50;70.80
70079;DHT22;57451;52.496;13.456;2022-11-11T08:46:24;10.60;70.40
70079;DHT22;57451;52.496;13.456;2022-11-11T08:49:10;10.70;70.10
70079;DHT22;57451;52.496;13.456;2022-11-11T08:51:57;10.80;69.50
70079;DHT22;57451;52.496;13.456;2022-11-11T08:54:44;10.90;69.50
70079;DHT22;57451;52.496;13.456;2022-11-11T08:57:30;11.10;69.80
70079;DHT22;57451;52.496;13.456;2022-11-11T09:00:16;11.30;68.90
70079;DHT22;57451;52.496;13.456;2022-11-11T09:03:03;11.60;68.90
70079;DHT22;57451;52.496;13.456;2022-11-11T09:05:50;11.80;66.70
70079;DHT22;57451;52.496;13.456;2022-11-11T09:08:36;12.10;66.40
70079;DHT22;57451;52.496;13.456;2022-11-11T09:11:23;12.30;65.00
70079;DHT22;57451;52.496;13.456;2022-11-11T09:14:09;12.50;65.30
70079;DHT22;57451;52.496;13.456;2022-11-11T09:16:55;12.70;64.30
70079;DHT22;57451;52.496;13.456;2022-11-11T09:19:41;12.90;63.80
70079;DHT22;57451;52.496;13.456;2022-11-11T09:22:27;13.10;63.70
70079;DHT22;57451;52.496;13.456;2022-11-11T09:25:13;13.30;62.80
70079;DHT22;57451;52.496;13.456;2022-11-11T09:28:00;13.40;61.90
70079;DHT22;57451;52.496;13.456;2022-11-11T09:30:47;13.60;61.00
70079;DHT22;57451;52.496;13.456;2022-11-11T09:33:33;13.60;60.60
70079;DHT22;57451;52.496;13.456;2022-11-11T09:36:19;13.60;60.70
70079;DHT22;57451;52.496;13.456;2022-11-11T09:39:06;13.80;61.00
70079;DHT22;57451;52.496;13.456;2022-11-11T09:41:57;13.80;59.90
70079;DHT22;57451;52.496;13.456;2022-11-11T09:45:06;13.80;60.00
70079;DHT22;57451;52.496;13.456;2022-11-11T09:47:59;13.80;59.10
70079;DHT22;57451;52.496;13.456;2022-11-11T09:50:56;13.70;60.30
70079;DHT22;57451;52.496;13.456;2022-11-11T09:53:46;13.60;59.90
70079;DHT22;57451;52.496;13.456;2022-11-11T09:56:34;13.60;59.90
70079;DHT22;57451;52.496;13.456;2022-11-11T09:59:24;13.50;60.40
70079;DHT22;57451;52.496;13.456;2022-11-11T10:02:18;13.50;59.80
70079;DHT22;57451;52.496;13.456;2022-11-11T10:05:09;13.40;60.50
70079;DHT22;57451;52.496;13.456;2022-11-11T10:08:00;13.40;60.90
70079;DHT22;57451;52.496;13.456;2022-11-11T10:10:48;13.40;60.50
70079;DHT22;57451;52.496;13.456;2022-11-11T10:13:36;13.40;61.20
70079;DHT22;57451;52.496;13.456;2022-11-11T10:16:29;13.40;61.00
70079;DHT22;57451;52.496;13.456;2022-11-11T10:19:27;13.40;60.50
70079;DHT22;57451;52.496;13.456;2022-11-11T10:22:19;13.30;61.00
70079;DHT22;57451;52.496;13.456;2022-11-11T10:25:15;13.30;61.60
70079;DHT22;57451;52.496;13.456;2022-11-11T10:28:03;13.30;60.90
70079;DHT22;57451;52.496;13.456;2022-11-11T10:30:50;13.20;61.00
70079;DHT22;57451;52.496;13.456;2022-11-11T10:33:43;13.30;61.20
70079;DHT22;57451;52.496;13.456;2022-11-11T10:36:42;13.40;61.20
70079;DHT22;57451;52.496;13.456;2022-11-11T10:39:37;13.40;60.90
70079;DHT22;57451;52.496;13.456;2022-11-11T10:42:29;13.50;60.90
70079;DHT22;57451;52.496;13.456;2022-11-11T10:45:22;13.50;60.80
70079;DHT22;57451;52.496;13.456;2022-11-11T10:48:13;13.50;61.10
70079;DHT22;57451;52.496;13.456;2022-11-11T10:51:02;13.60;60.80
70079;DHT22;57451;52.496;13.456;2022-11-11T10:53:56;13.60;60.50
70079;DHT22;57451;52.496;13.456;2022-11-11T10:56:46;13.70;61.20
70079;DHT22;57451;52.496;13.456;2022-11-11T10:59:38;13.80;60.30
70079;DHT22;57451;52.496;13.456;2022-11-11T11:02:28;13.80;59.30
70079;DHT22;57451;52.496;13.456;2022-11-11T11:05:19;13.80;58.60
70079;DHT22;57451;52.496;13.456;2022-11-11T11:08:10;13.80;59.10
70079;DHT22;57451;52.496;13.456;2022-11-11T11:11:01;13.90;59.20
70079;DHT22;57451;52.496;13.456;2022-11-11T11:13:51;13.90;59.40
70079;DHT22;57451;52.496;13.456;2022-11-11T11:16:40;14.00;59.70
70079;DHT22;57451;52.496;13.456;2022-11-11T11:19:29;14.00;59.00
70079;DHT22;57451;52.496;13.456;2022-11-11T11:22:15;14.00;58.90
70079;DHT22;57451;52.496;13.456;2022-11-11T11:25:08;14.00;58.90
70079;DHT22;57451;52.496;13.456;2022-11-11T11:28:07;14.10;58.60
70079;DHT22;57451;52.496;13.456;2022-11-11T11:31:01;14.20;59.00
70079;DHT22;57451;52.496;13.456;2022-11-11T11:33:52;14.20;58.90
70079;DHT22;57451;52.496;13.456;2022-11-11T11:36:38;14.20;58.80
70079;DHT22;57451;52.496;13.456;2022-11-11T11:39:32;14.10;58.70
70079;DHT22;57451;52.496;13.456;2022-11-11T11:42:27;14.10;58.60
70079;DHT22;57451;52.496;13.456;2022-11-11T11:45:22;14.10;58.10
70079;DHT22;57451;52.496;13.456;2022-11-11T11:48:16;14.00;59.00
70079;DHT22;57451;52.496;13.456;2022-11-11T11:51:27;14.00;58.50
70079;DHT22;57451;52.496;13.456;2022-11-11T11:54:33;14.00;58.90
70079;DHT22;57451;52.496;13.456;2022-11-11T11:57:39;14.10;59.20
70079;DHT22;57451;52.496;13.456;2022-11-11T12:00:32;14.10;58.90
70079;DHT22;57451;52.496;13.456;2022-11-11T12:06:45;14.20;59.60
70079;DHT22;57451;52.496;13.456;2022-11-11T12:09:45;14.30;58.90
70079;DHT22;57451;52.496;13.456;2022-11-11T12:12:38;14.30;58.50
70079;DHT22;57451;52.496;13.456;2022-11-11T12:15:32;14.30;59.40
70079;DHT22;57451;52.496;13.456;2022-11-11T12:18:36;14.40;59.20
70079;DHT22;57451;52.496;13.456;2022-11-11T12:21:28;14.30;58.10
70079;DHT22;57451;52.496;13.456;2022-11-11T12:24:30;14.20;58.60
70079;DHT22;57451;52.496;13.456;2022-11-11T12:27:27;14.10;59.00
70079;DHT22;57451;52.496;13.456;2022-11-11T12:30:18;14.20;59.00
70079;DHT22;57451;52.496;13.456;2022-11-11T12:33:26;14.20;58.60
70079;DHT22;57451;52.496;13.456;2022-11-11T12:36:21;14.20;58.80
70079;DHT22;57451;52.496;13.456;2022-11-11T12:39:28;14.20;58.60
70079;DHT22;57451;52.496;13.456;2022-11-11T12:42:25;14.30;58.50
70079;DHT22;57451;52.496;13.456;2022-11-11T12:45:16;14.30;59.10
70079;DHT22;57451;52.496;13.456;2022-11-11T12:48:12;14.30;59.10
70079;DHT22;57451;52.496;13.456;2022-11-11T12:51:10;14.30;58.60
70079;DHT22;57451;52.496;13.456;2022-11-11T12:54:04;14.40;58.30
70079;DHT22;57451;52.496;13.456;2022-11-11T12:57:03;14.50;58.20
70079;DHT22;57451;52.496;13.456;2022-11-11T13:00:01;14.50;58.60
70079;DHT22;57451;52.496;13.456;2022-11-11T13:03:10;14.60;58.70
70079;DHT22;57451;52.496;13.456;2022-11-11T13:06:03;14.60;57.60
70079;DHT22;57451;52.496;13.456;2022-11-11T13:09:00;14.60;58.20
70079;DHT22;57451;52.496;13.456;2022-11-11T13:11:55;14.60;57.60
70079;DHT22;57451;52.496;13.456;2022-11-11T13:14:50;14.70;57.60
70079;DHT22;57451;52.496;13.456;2022-11-11T13:17:38;14.70;57.90
70079;DHT22;57451;52.496;13.456;2022-11-11T13:20:39;14.70;57.20
70079;DHT22;57451;52.496;13.456;2022-11-11T13:23:27;14.60;57.20
70079;DHT22;57451;52.496;13.456;2022-11-11T13:26:24;14.50;57.80
70079;DHT22;57451;52.496;13.456;2022-11-11T13:29:51;14.60;57.30
70079;DHT22;57451;52.496;13.456;2022-11-11T13:32:44;14.60;57.30
70079;DHT22;57451;52.496;13.456;2022-11-11T13:35:35;14.50;57.00
70079;DHT22;57451;52.496;13.456;2022-11-11T13:38:26;14.30;57.70
70079;DHT22;57451;52.496;13.456;2022-11-11T13:41:21;14.40;57.90
70079;DHT22;57451;52.496;13.456;2022-11-11T13:44:08;14.40;57.90
70079;DHT22;57451;52.496;13.456;2022-11-11T13:47:04;14.40;58.10
70079;DHT22;57451;52.496;13.456;2022-11-11T13:49:53;14.40;58.10
70079;DHT22;57451;52.496;13.456;2022-11-11T13:52:52;14.30;58.00
70079;DHT22;57451;52.496;13.456;2022-11-11T13:55:42;14.20;58.80
70079;DHT22;57451;52.496;13.456;2022-11-11T13:58:32;14.10;58.20
70079;DHT22;57451;52.496;13.456;2022-11-11T14:01:18;14.20;58.70
70079;DHT22;57451;52.496;13.456;2022-11-11T14:04:05;14.10;58.60
70079;DHT22;57451;52.496;13.456;2022-11-11T14:06:54;14.20;59.00
70079;DHT22;57451;52.496;13.456;2022-11-11T14:09:57;14.10;58.80
70079;DHT22;57451;52.496;13.456;2022-11-11T14:12:43;14.10;59.00
70079;DHT22;57451;52.496;13.456;2022-11-11T14:15:43;14.10;59.10
70079;DHT22;57451;52.496;13.456;2022-11-11T14:18:41;14.00;59.30
70079;DHT22;57451;52.496;13.456;2022-11-11T14:21:46;14.00;58.70
70079;DHT22;57451;52.496;13.456;2022-11-11T14:24:36;13.90;59.60
70079;DHT22;57451;52.496;13.456;2022-11-11T14:27:26;13.90;59.80
70079;DHT22;57451;52.496;13.456;2022-11-11T14:30:32;13.90;59.60
70079;DHT22;57451;52.496;13.456;2022-11-11T14:33:40;13.90;59.80
70079;DHT22;57451;52.496;13.456;2022-11-11T14:36:37;13.80;59.90
70079;DHT22;57451;52.496;13.456;2022-11-11T14:39:34;13.80;60.10
70079;DHT22;57451;52.496;13.456;2022-11-11T14:42:44;13.80;60.20
70079;DHT22;57451;52.496;13.456;2022-11-11T14:46:02;13.60;60.10
70079;DHT22;57451;52.496;13.456;2022-11-11T14:48:58;13.50;60.70
70079;DHT22;57451;52.496;13.456;2022-11-11T14:51:52;13.50;60.60
70079;DHT22;57451;52.496;13.456;2022-11-11T14:54:52;13.50;60.80
70079;DHT22;57451;52.496;13.456;2022-11-11T14:57:43;13.40;60.90
70079;DHT22;57451;52.496;13.456;2022-11-11T15:00:48;13.40;61.00
70079;DHT22;57451;52.496;13.456;2022-11-11T15:03:37;13.40;61.30
70079;DHT22;57451;52.496;13.456;2022-11-11T15:06:29;13.40;61.20
70079;DHT22;57451;52.496;13.456;2022-11-11T15:09:32;13.30;61.30
70079;DHT22;57451;52.496;13.456;2022-11-11T15:12:29;13.20;61.50
70079;DHT22;57451;52.496;13.456;2022-11-11T15:15:21;13.20;61.50
70079;DHT22;57451;52.496;13.456;2022-11-11T15:18:22;13.10;61.80
70079;DHT22;57451;52.496;13.456;2022-11-11T15:21:13;13.10;61.80
70079;DHT22;57451;52.496;13.456;2022-11-11T15:24:10;13.10;61.90
70079;DHT22;57451;52.496;13.456;2022-11-11T15:27:05;13.10;61.90
70079;DHT22;57451;52.496;13.456;2022-11-11T15:30:02;13.10;61.90
70079;DHT22;57451;52.496;13.456;2022-11-11T15:33:04;13.00;62.10
70079;DHT22;57451;52.496;13.456;2022-11-11T15:35:59;12.90;62.20
70079;DHT22;57451;52.496;13.456;2022-11-11T15:38:56;12.90;62.40
70079;DHT22;57451;52.496;13.456;2022-11-11T15:41:47;12.80;62.60
70079;DHT22;57451;52.496;13.456;2022-11-11T15:44:34;12.80;62.70
70079;DHT22;57451;52.496;13.456;2022-11-11T15:47:26;12.80;62.80
70079;DHT22;57451;52.496;13.456;2022-11-11T15:50:29;12.70;62.90
70079;DHT22;57451;52.496;13.456;2022-11-11T15:53:22;12.70;63.10
70079;DHT22;57451;52.496;13.456;2022-11-11T15:56:09;12.60;63.10
70079;DHT22;57451;52.496;13.456;2022-11-11T15:58:56;12.60;63.20
70079;DHT22;57451;52.496;13.456;2022-11-11T16:01:42;12.60;63.20
70079;DHT22;57451;52.496;13.456;2022-11-11T16:04:29;12.50;63.30
70079;DHT22;57451;52.496;13.456;2022-11-11T16:07:36;12.50;63.60
70079;DHT22;57451;52.496;13.456;2022-11-11T16:10:27;12.40;63.80
70079;DHT22;57451;52.496;13.456;2022-11-11T16:13:16;12.40;64.10
70079;DHT22;57451;52.496;13.456;2022-11-11T16:16:09;12.30;64.20
70079;DHT22;57451;52.496;13.456;2022-11-11T16:18:59;12.30;64.30
70079;DHT22;57451;52.496;13.456;2022-11-11T16:21:49;12.20;64.30
70079;DHT22;57451;52.496;13.456;2022-11-11T16:24:39;12.20;64.40
70079;DHT22;57451;52.496;13.456;2022-11-11T16:27:33;12.10;64.60
70079;DHT22;57451;52.496;13.456;2022-11-11T16:30:31;12.10;64.90
70079;DHT22;57451;52.496;13.456;2022-11-11T16:33:31;12.10;64.80
70079;DHT22;57451;52.496;13.456;2022-11-11T16:36:18;12.00;64.80
70079;DHT22;57451;52.496;13.456;2022-11-11T16:39:13;12.00;65.10
70079;DHT22;57451;52.496;13.456;2022-11-11T16:42:00;11.90;65.20
70079;DHT22;57451;52.496;13.456;2022-11-11T16:44:53;11.90;65.20
70079;DHT22;57451;52.496;13.456;2022-11-11T16:47:46;11.90;65.30
70079;DHT22;57451;52.496;13.456;2022-11-11T16:50:52;11.80;65.40
70079;DHT22;57451;52.496;13.456;2022-11-11T16:53:41;11.80;65.30
70079;DHT22;57451;52.496;13.456;2022-11-11T16:56:29;11.80;65.50
70079;DHT22;57451;52.496;13.456;2022-11-11T16:59:20;11.70;65.60
70079;DHT22;57451;52.496;13.456;2022-11-11T17:02:14;11.70;65.80
70079;DHT22;57451;52.496;13.456;2022-11-11T17:05:01;11.70;65.70
70079;DHT22;57451;52.496;13.456;2022-11-11T17:07:48;11.60;65.70
70079;DHT22;57451;52.496;13.456;2022-11-11T17:10:38;11.60;66.10
70079;DHT22;57451;52.496;13.456;2022-11-11T17:13:25;11.60;66.20
70079;DHT22;57451;52.496;13.456;2022-11-11T17:16:12;11.50;66.20
70079;DHT22;57451;52.496;13.456;2022-11-11T17:18:59;11.50;66.20
70079;DHT22;57451;52.496;13.456;2022-11-11T17:21:45;11.40;66.40
70079;DHT22;57451;52.496;13.456;2022-11-11T17:24:32;11.40;66.70
70079;DHT22;57451;52.496;13.456;2022-11-11T17:27:18;11.40;66.80
70079;DHT22;57451;52.496;13.456;2022-11-11T17:30:05;11.30;66.80
70079;DHT22;57451;52.496;13.456;2022-11-11T17:32:51;11.30;66.80
70079;DHT22;57451;52.496;13.456;2022-11-11T17:35:48;11.20;67.00
70079;DHT22;57451;52.496;13.456;2022-11-11T17:38:35;11.20;67.00
70079;DHT22;57451;52.496;13.456;2022-11-11T17:41:23;11.20;67.10
70079;DHT22;57451;52.496;13.456;2022-11-11T17:44:09;11.10;67.40
70079;DHT22;57451;52.496;13.456;2022-11-11T17:46:55;11.10;67.80
70079;DHT22;57451;52.496;13.456;2022-11-11T17:49:41;11.00;67.70
70079;DHT22;57451;52.496;13.456;2022-11-11T17:52:41;11.00;68.00
70079;DHT22;57451;52.496;13.456;2022-11-11T17:55:27;11.00;67.80
70079;DHT22;57451;52.496;13.456;2022-11-11T17:58:15;11.00;68.00